sensor_id;sensor_type;location;lat;lon;timestamp;P1;durP1;ratioP1;P2;durP2;ratioP2
80799;SDS011;70202;52.238;10.680;2024-02-26T00:00:58;0.30;;;0.10;;
80799;SDS011;70202;52.238;10.680;2024-02-26T00:01:58;0.08;;;0.00;;
80799;SDS011;70202;52.238;10.680;2024-02-26T00:02:59;0.00;;;0.00;;
80799;SDS011;70202;52.238;10.680;2024-02-26T00:03:59;0.28;;;0.10;;
80799;SDS011;70202;52.238;10.680;2024-02-26T00:05:02;0.10;;;0.10;;
80799;SDS011;70202;52.238;10.680;2024-02-26T00:06:02;0.00;;;0.00;;
80799;SDS011;70202;52.238;10.680;2024-02-26T00:07:03;0.10;;;0.10;;
80799;SDS011;70202;52.238;10.680;2024-02-26T00:08:03;0.00;;;0.00;;
80799;SDS011;70202;52.238;10.680;2024-02-26T00:09:04;0.10;;;0.00;;
80799;SDS011;70202;52.238;10.680;2024-02-26T00:10:06;0.00;;;0.00;;
80799;SDS011;70202;52.238;10.680;2024-02-26T00:11:07;0.00;;;0.00;;
80799;SDS011;70202;52.238;10.680;2024-02-26T00:12:07;0.10;;;0.05;;
80799;SDS011;70202;52.238;10.680;2024-02-26T00:13:08;0.00;;;0.00;;
80799;SDS011;70202;52.238;10.680;2024-02-26T00:14:08;0.00;;;0.00;;
80799;SDS011;70202;52.238;10.680;2024-02-26T00:15:09;0.00;;;0.00;;
80799;SDS011;70202;52.238;10.680;2024-02-26T00:16:10;0.32;;;0.03;;
80799;SDS011;70202;52.238;10.680;2024-02-26T00:17:10;0.10;;;0.00;;
80799;SDS011;70202;52.238;10.680;2024-02-26T00:18:11;0.00;;;0.00;;
80799;SDS011;70202;52.238;10.680;2024-02-26T00:19:11;0.20;;;0.03;;
80799;SDS011;70202;52.238;10.680;2024-02-26T00:20:12;0.10;;;0.00;;
80799;SDS011;70202;52.238;10.680;2024-02-26T00:21:13;0.00;;;0.00;;
80799;SDS011;70202;52.238;10.680;2024-02-26T00:22:14;0.32;;;0.00;;
80799;SDS011;70202;52.238;10.680;2024-02-26T00:23:15;0.10;;;0.05;;
80799;SDS011;70202;52.238;10.680;2024-02-26T00:24:15;0.15;;;0.00;;
80799;SDS011;70202;52.238;10.680;2024-02-26T00:25:16;0.00;;;0.00;;
80799;SDS011;70202;52.238;10.680;2024-02-26T00:26:16;0.00;;;0.00;;
80799;SDS011;70202;52.238;10.680;2024-02-26T00:27:17;0.00;;;0.00;;
80799;SDS011;70202;52.238;10.680;2024-02-26T00:28:17;0.00;;;0.00;;
80799;SDS011;70202;52.238;10.680;2024-02-26T00:29:20;0.00;;;0.00;;
80799;SDS011;70202;52.238;10.680;2024-02-26T00:30:20;0.00;;;0.00;;
80799;SDS011;70202;52.238;10.680;2024-02-26T00:31:21;0.00;;;0.00;;
80799;SDS011;70202;52.238;10.680;2024-02-26T00:32:21;0.00;;;0.00;;
80799;SDS011;70202;52.238;10.680;2024-02-26T00:33:22;0.00;;;0.00;;
80799;SDS011;70202;52.238;10.680;2024-02-26T00:34:22;0.10;;;0.10;;
80799;SDS011;70202;52.238;10.680;2024-02-26T00:35:23;0.00;;;0.00;;
80799;SDS011;70202;52.238;10.680;2024-02-26T00:36:23;0.20;;;0.00;;
80799;SDS011;70202;52.238;10.680;2024-02-26T00:37:23;0.05;;;0.00;;
80799;SDS011;70202;52.238;10.680;2024-02-26T00:38:24;0.20;;;0.00;;
80799;SDS011;70202;52.238;10.680;2024-02-26T00:39:24;0.10;;;0.10;;
80799;SDS011;70202;52.238;10.680;2024-02-26T00:40:25;0.17;;;0.10;;
80799;SDS011;70202;52.238;10.680;2024-02-26T00:41:25;0.15;;;0.00;;
80799;SDS011;70202;52.238;10.680;2024-02-26T00:42:26;0.20;;;0.10;;
80799;SDS011;70202;52.238;10.680;2024-02-26T00:43:26;0.00;;;0.00;;
80799;SDS011;70202;52.238;10.680;2024-02-26T00:44:26;0.00;;;0.00;;
80799;SDS011;70202;52.238;10.680;2024-02-26T00:45:27;0.10;;;0.00;;
80799;SDS011;70202;52.238;10.680;2024-02-26T00:46:27;0.00;;;0.00;;
80799;SDS011;70202;52.238;10.680;2024-02-26T00:47:28;0.00;;;0.00;;
80799;SDS011;70202;52.238;10.680;2024-02-26T00:48:28;0.13;;;0.03;;
80799;SDS011;70202;52.238;10.680;2024-02-26T00:49:28;0.00;;;0.00;;
80799;SDS011;70202;52.238;10.680;2024-02-26T00:50:29;0.00;;;0.00;;
80799;SDS011;70202;52.238;10.680;2024-02-26T00:51:29;0.00;;;0.00;;
80799;SDS011;70202;52.238;10.680;2024-02-26T00:52:30;0.00;;;0.00;;
80799;SDS011;70202;52.238;10.680;2024-02-26T00:53:30;0.00;;;0.00;;
80799;SDS011;70202;52.238;10.680;2024-02-26T00:54:31;0.00;;;0.00;;
80799;SDS011;70202;52.238;10.680;2024-02-26T00:55:32;0.00;;;0.00;;
80799;SDS011;70202;52.238;10.680;2024-02-26T00:56:32;0.15;;;0.05;;
80799;SDS011;70202;52.238;10.680;2024-02-26T00:57:33;0.10;;;0.10;;
80799;SDS011;70202;52.238;10.680;2024-02-26T00:58:33;0.00;;;0.00;;
80799;SDS011;70202;52.238;10.680;2024-02-26T00:59:33;0.00;;;0.00;;
80799;SDS011;70202;52.238;10.680;2024-02-26T01:00:34;0.10;;;0.00;;
80799;SDS011;70202;52.238;10.680;2024-02-26T01:01:34;0.10;;;0.10;;
80799;SDS011;70202;52.238;10.680;2024-02-26T01:02:35;0.15;;;0.00;;
80799;SDS011;70202;52.238;10.680;2024-02-26T01:03:35;0.00;;;0.00;;
80799;SDS011;70202;52.238;10.680;2024-02-26T01:04:36;0.00;;;0.00;;
80799;SDS011;70202;52.238;10.680;2024-02-26T01:05:36;0.22;;;0.00;;
80799;SDS011;70202;52.238;10.680;2024-02-26T01:06:38;0.10;;;0.00;;
80799;SDS011;70202;52.238;10.680;2024-02-26T01:07:38;0.22;;;0.00;;
80799;SDS011;70202;52.238;10.680;2024-02-26T01:08:39;0.10;;;0.10;;
80799;SDS011;70202;52.238;10.680;2024-02-26T01:09:40;0.35;;;0.08;;
80799;SDS011;70202;52.238;10.680;2024-02-26T01:10:40;0.10;;;0.10;;
80799;SDS011;70202;52.238;10.680;2024-02-26T01:11:40;0.03;;;0.00;;
80799;SDS011;70202;52.238;10.680;2024-02-26T01:12:41;0.20;;;0.10;;
80799;SDS011;70202;52.238;10.680;2024-02-26T01:13:41;0.00;;;0.00;;
80799;SDS011;70202;52.238;10.680;2024-02-26T01:14:42;0.08;;;0.08;;
80799;SDS011;70202;52.238;10.680;2024-02-26T01:15:43;0.30;;;0.10;;
80799;SDS011;70202;52.238;10.680;2024-02-26T01:16:44;0.05;;;0.00;;
80799;SDS011;70202;52.238;10.680;2024-02-26T01:17:44;0.00;;;0.00;;
80799;SDS011;70202;52.238;10.680;2024-02-26T01:18:44;0.08;;;0.00;;
80799;SDS011;70202;52.238;10.680;2024-02-26T01:19:45;0.43;;;0.10;;
80799;SDS011;70202;52.238;10.680;2024-02-26T01:20:45;0.38;;;0.17;;
80799;SDS011;70202;52.238;10.680;2024-02-26T01:21:45;0.10;;;0.10;;
80799;SDS011;70202;52.238;10.680;2024-02-26T01:22:46;0.13;;;0.00;;
80799;SDS011;70202;52.238;10.680;2024-02-26T01:23:46;0.20;;;0.03;;
80799;SDS011;70202;52.238;10.680;2024-02-26T01:24:47;0.00;;;0.00;;
80799;SDS011;70202;52.238;10.680;2024-02-26T01:25:48;0.10;;;0.03;;
80799;SDS011;70202;52.238;10.680;2024-02-26T01:26:48;0.17;;;0.00;;
80799;SDS011;70202;52.238;10.680;2024-02-26T01:27:49;0.00;;;0.00;;
80799;SDS011;70202;52.238;10.680;2024-02-26T01:28:49;0.05;;;0.00;;
80799;SDS011;70202;52.238;10.680;2024-02-26T01:29:49;0.00;;;0.00;;
80799;SDS011;70202;52.238;10.680;2024-02-26T01:30:50;0.00;;;0.00;;
80799;SDS011;70202;52.238;10.680;2024-02-26T01:31:50;0.13;;;0.08;;
80799;SDS011;70202;52.238;10.680;2024-02-26T01:32:51;0.00;;;0.00;;
80799;SDS011;70202;52.238;10.680;2024-02-26T01:33:51;0.08;;;0.08;;
80799;SDS011;70202;52.238;10.680;2024-02-26T01:34:52;0.32;;;0.10;;
80799;SDS011;70202;52.238;10.680;2024-02-26T01:35:53;0.00;;;0.00;;
80799;SDS011;70202;52.238;10.680;2024-02-26T01:36:53;0.00;;;0.00;;
80799;SDS011;70202;52.238;10.680;2024-02-26T01:37:53;0.20;;;0.10;;
80799;SDS011;70202;52.238;10.680;2024-02-26T01:38:54;0.10;;;0.10;;
80799;SDS011;70202;52.238;10.680;2024-02-26T01:39:54;0.20;;;0.00;;
80799;SDS011;70202;52.238;10.680;2024-02-26T01:40:55;0.00;;;0.00;;
80799;SDS011;70202;52.238;10.680;2024-02-26T01:41:55;0.20;;;0.00;;
80799;SDS011;70202;52.238;10.680;2024-02-26T01:42:55;0.10;;;0.00;;
80799;SDS011;70202;52.238;10.680;2024-02-26T01:43:56;0.00;;;0.00;;
80799;SDS011;70202;52.238;10.680;2024-02-26T01:44:56;0.00;;;0.00;;
80799;SDS011;70202;52.238;10.680;2024-02-26T01:45:57;0.00;;;0.00;;
80799;SDS011;70202;52.238;10.680;2024-02-26T01:46:58;0.03;;;0.00;;
80799;SDS011;70202;52.238;10.680;2024-02-26T01:47:59;0.00;;;0.00;;
80799;SDS011;70202;52.238;10.680;2024-02-26T01:49:00;0.10;;;0.10;;
80799;SDS011;70202;52.238;10.680;2024-02-26T01:50:02;0.15;;;0.00;;
80799;SDS011;70202;52.238;10.680;2024-02-26T01:51:02;0.00;;;0.00;;
80799;SDS011;70202;52.238;10.680;2024-02-26T01:52:03;0.10;;;0.00;;
80799;SDS011;70202;52.238;10.680;2024-02-26T01:53:06;0.00;;;0.00;;
80799;SDS011;70202;52.238;10.680;2024-02-26T01:54:07;0.00;;;0.00;;
80799;SDS011;70202;52.238;10.680;2024-02-26T01:55:08;0.00;;;0.00;;
80799;SDS011;70202;52.238;10.680;2024-02-26T01:56:08;0.00;;;0.00;;
80799;SDS011;70202;52.238;10.680;2024-02-26T01:57:08;0.30;;;0.10;;
80799;SDS011;70202;52.238;10.680;2024-02-26T01:58:09;0.00;;;0.00;;
80799;SDS011;70202;52.238;10.680;2024-02-26T01:59:10;0.00;;;0.00;;
80799;SDS011;70202;52.238;10.680;2024-02-26T02:00:11;0.10;;;0.00;;
80799;SDS011;70202;52.238;10.680;2024-02-26T02:01:14;0.20;;;0.00;;
80799;SDS011;70202;52.238;10.680;2024-02-26T02:02:17;0.00;;;0.00;;
80799;SDS011;70202;52.238;10.680;2024-02-26T02:03:18;0.03;;;0.00;;
80799;SDS011;70202;52.238;10.680;2024-02-26T02:04:18;0.00;;;0.00;;
80799;SDS011;70202;52.238;10.680;2024-02-26T02:05:19;0.20;;;0.00;;
80799;SDS011;70202;52.238;10.680;2024-02-26T02:06:21;0.20;;;0.10;;
80799;SDS011;70202;52.238;10.680;2024-02-26T02:07:21;0.10;;;0.05;;
80799;SDS011;70202;52.238;10.680;2024-02-26T02:08:23;0.32;;;0.10;;
80799;SDS011;70202;52.238;10.680;2024-02-26T02:09:24;0.10;;;0.10;;
80799;SDS011;70202;52.238;10.680;2024-02-26T02:10:24;0.10;;;0.10;;
80799;SDS011;70202;52.238;10.680;2024-02-26T02:11:26;0.10;;;0.03;;
80799;SDS011;70202;52.238;10.680;2024-02-26T02:12:27;0.15;;;0.00;;
80799;SDS011;70202;52.238;10.680;2024-02-26T02:13:27;0.00;;;0.00;;
80799;SDS011;70202;52.238;10.680;2024-02-26T02:14:27;0.00;;;0.00;;
80799;SDS011;70202;52.238;10.680;2024-02-26T02:15:28;0.00;;;0.00;;
80799;SDS011;70202;52.238;10.680;2024-02-26T02:16:28;0.00;;;0.00;;
80799;SDS011;70202;52.238;10.680;2024-02-26T02:17:30;0.05;;;0.00;;
80799;SDS011;70202;52.238;10.680;2024-02-26T02:18:31;0.10;;;0.05;;
80799;SDS011;70202;52.238;10.680;2024-02-26T02:19:31;0.00;;;0.00;;
80799;SDS011;70202;52.238;10.680;2024-02-26T02:20:34;0.10;;;0.00;;
80799;SDS011;70202;52.238;10.680;2024-02-26T02:21:35;0.00;;;0.00;;
80799;SDS011;70202;52.238;10.680;2024-02-26T02:22:36;0.25;;;0.10;;
80799;SDS011;70202;52.238;10.680;2024-02-26T02:23:36;0.00;;;0.00;;
80799;SDS011;70202;52.238;10.680;2024-02-26T02:24:36;0.00;;;0.00;;
80799;SDS011;70202;52.238;10.680;2024-02-26T02:25:37;0.28;;;0.10;;
80799;SDS011;70202;52.238;10.680;2024-02-26T02:26:37;0.10;;;0.08;;
80799;SDS011;70202;52.238;10.680;2024-02-26T02:27:39;0.05;;;0.00;;
80799;SDS011;70202;52.238;10.680;2024-02-26T02:28:40;0.65;;;0.20;;
80799;SDS011;70202;52.238;10.680;2024-02-26T02:29:41;0.05;;;0.00;;
80799;SDS011;70202;52.238;10.680;2024-02-26T02:30:42;0.00;;;0.00;;
80799;SDS011;70202;52.238;10.680;2024-02-26T02:31:42;0.03;;;0.00;;
80799;SDS011;70202;52.238;10.680;2024-02-26T02:32:43;0.05;;;0.00;;
80799;SDS011;70202;52.238;10.680;2024-02-26T02:33:44;0.00;;;0.00;;
80799;SDS011;70202;52.238;10.680;2024-02-26T02:34:45;0.10;;;0.10;;
80799;SDS011;70202;52.238;10.680;2024-02-26T02:35:46;0.10;;;0.00;;
80799;SDS011;70202;52.238;10.680;2024-02-26T02:36:52;0.20;;;0.10;;
80799;SDS011;70202;52.238;10.680;2024-02-26T02:37:53;0.20;;;0.10;;
80799;SDS011;70202;52.238;10.680;2024-02-26T02:38:55;0.68;;;0.20;;
80799;SDS011;70202;52.238;10.680;2024-02-26T02:39:55;0.32;;;0.10;;
80799;SDS011;70202;52.238;10.680;2024-02-26T02:40:57;0.57;;;0.20;;
80799;SDS011;70202;52.238;10.680;2024-02-26T02:41:57;0.43;;;0.10;;
80799;SDS011;70202;52.238;10.680;2024-02-26T02:42:58;0.35;;;0.20;;
80799;SDS011;70202;52.238;10.680;2024-02-26T02:43:59;0.40;;;0.20;;
80799;SDS011;70202;52.238;10.680;2024-02-26T02:45:00;0.17;;;0.15;;
80799;SDS011;70202;52.238;10.680;2024-02-26T02:46:00;0.35;;;0.22;;
80799;SDS011;70202;52.238;10.680;2024-02-26T02:47:01;0.17;;;0.15;;
80799;SDS011;70202;52.238;10.680;2024-02-26T02:48:01;0.30;;;0.17;;
80799;SDS011;70202;52.238;10.680;2024-02-26T02:49:02;0.28;;;0.10;;
80799;SDS011;70202;52.238;10.680;2024-02-26T02:50:02;0.40;;;0.20;;
80799;SDS011;70202;52.238;10.680;2024-02-26T02:51:03;0.50;;;0.30;;
80799;SDS011;70202;52.238;10.680;2024-02-26T02:52:04;0.22;;;0.10;;
80799;SDS011;70202;52.238;10.680;2024-02-26T02:53:04;0.10;;;0.10;;
80799;SDS011;70202;52.238;10.680;2024-02-26T02:54:05;0.32;;;0.20;;
80799;SDS011;70202;52.238;10.680;2024-02-26T02:55:05;0.77;;;0.28;;
80799;SDS011;70202;52.238;10.680;2024-02-26T02:56:06;0.30;;;0.20;;
80799;SDS011;70202;52.238;10.680;2024-02-26T02:57:07;0.30;;;0.20;;
80799;SDS011;70202;52.238;10.680;2024-02-26T02:58:08;0.13;;;0.13;;
80799;SDS011;70202;52.238;10.680;2024-02-26T02:59:08;0.10;;;0.10;;
80799;SDS011;70202;52.238;10.680;2024-02-26T03:00:09;0.10;;;0.10;;
80799;SDS011;70202;52.238;10.680;2024-02-26T03:01:10;0.50;;;0.15;;
80799;SDS011;70202;52.238;10.680;2024-02-26T03:02:10;0.25;;;0.20;;
80799;SDS011;70202;52.238;10.680;2024-02-26T03:03:11;0.32;;;0.13;;
80799;SDS011;70202;52.238;10.680;2024-02-26T03:04:12;0.20;;;0.20;;
80799;SDS011;70202;52.238;10.680;2024-02-26T03:05:12;0.40;;;0.30;;
80799;SDS011;70202;52.238;10.680;2024-02-26T03:06:12;0.38;;;0.30;;
80799;SDS011;70202;52.238;10.680;2024-02-26T03:07:13;0.32;;;0.20;;
80799;SDS011;70202;52.238;10.680;2024-02-26T03:08:13;0.35;;;0.10;;
80799;SDS011;70202;52.238;10.680;2024-02-26T03:09:14;0.38;;;0.28;;
80799;SDS011;70202;52.238;10.680;2024-02-26T03:10:14;0.10;;;0.10;;
80799;SDS011;70202;52.238;10.680;2024-02-26T03:11:14;0.45;;;0.20;;
80799;SDS011;70202;52.238;10.680;2024-02-26T03:12:15;0.52;;;0.20;;
80799;SDS011;70202;52.238;10.680;2024-02-26T03:13:15;0.25;;;0.20;;
80799;SDS011;70202;52.238;10.680;2024-02-26T03:14:16;0.35;;;0.15;;
80799;SDS011;70202;52.238;10.680;2024-02-26T03:15:16;0.50;;;0.20;;
80799;SDS011;70202;52.238;10.680;2024-02-26T03:16:17;0.70;;;0.30;;
80799;SDS011;70202;52.238;10.680;2024-02-26T03:17:17;0.30;;;0.20;;
80799;SDS011;70202;52.238;10.680;2024-02-26T03:18:18;0.57;;;0.20;;
80799;SDS011;70202;52.238;10.680;2024-02-26T03:19:18;0.30;;;0.10;;
80799;SDS011;70202;52.238;10.680;2024-02-26T03:20:19;0.25;;;0.25;;
80799;SDS011;70202;52.238;10.680;2024-02-26T03:21:19;0.75;;;0.30;;
80799;SDS011;70202;52.238;10.680;2024-02-26T03:22:20;0.60;;;0.35;;
80799;SDS011;70202;52.238;10.680;2024-02-26T03:23:21;0.10;;;0.10;;
80799;SDS011;70202;52.238;10.680;2024-02-26T03:24:22;0.30;;;0.20;;
80799;SDS011;70202;52.238;10.680;2024-02-26T03:25:22;0.20;;;0.20;;
80799;SDS011;70202;52.238;10.680;2024-02-26T03:26:22;0.22;;;0.15;;
80799;SDS011;70202;52.238;10.680;2024-02-26T03:27:23;0.68;;;0.30;;
80799;SDS011;70202;52.238;10.680;2024-02-26T03:28:23;0.50;;;0.32;;
80799;SDS011;70202;52.238;10.680;2024-02-26T03:29:24;0.43;;;0.22;;
80799;SDS011;70202;52.238;10.680;2024-02-26T03:30:24;0.70;;;0.30;;
80799;SDS011;70202;52.238;10.680;2024-02-26T03:31:24;0.25;;;0.25;;
80799;SDS011;70202;52.238;10.680;2024-02-26T03:32:25;0.32;;;0.17;;
80799;SDS011;70202;52.238;10.680;2024-02-26T03:33:25;0.03;;;0.03;;
80799;SDS011;70202;52.238;10.680;2024-02-26T03:34:26;0.38;;;0.20;;
80799;SDS011;70202;52.238;10.680;2024-02-26T03:35:27;0.10;;;0.10;;
80799;SDS011;70202;52.238;10.680;2024-02-26T03:36:27;0.20;;;0.20;;
80799;SDS011;70202;52.238;10.680;2024-02-26T03:37:28;0.47;;;0.17;;
80799;SDS011;70202;52.238;10.680;2024-02-26T03:38:28;0.25;;;0.17;;
80799;SDS011;70202;52.238;10.680;2024-02-26T03:39:30;0.10;;;0.10;;
80799;SDS011;70202;52.238;10.680;2024-02-26T03:40:30;0.40;;;0.25;;
80799;SDS011;70202;52.238;10.680;2024-02-26T03:41:31;0.90;;;0.35;;
80799;SDS011;70202;52.238;10.680;2024-02-26T03:42:32;0.63;;;0.25;;
80799;SDS011;70202;52.238;10.680;2024-02-26T03:43:32;0.10;;;0.10;;
80799;SDS011;70202;52.238;10.680;2024-02-26T03:44:33;0.40;;;0.20;;
80799;SDS011;70202;52.238;10.680;2024-02-26T03:45:33;0.43;;;0.30;;
80799;SDS011;70202;52.238;10.680;2024-02-26T03:46:33;0.28;;;0.10;;
80799;SDS011;70202;52.238;10.680;2024-02-26T03:47:34;0.40;;;0.22;;
80799;SDS011;70202;52.238;10.680;2024-02-26T03:48:35;0.17;;;0.10;;
80799;SDS011;70202;52.238;10.680;2024-02-26T03:49:35;0.52;;;0.25;;
80799;SDS011;70202;52.238;10.680;2024-02-26T03:50:35;0.35;;;0.20;;
80799;SDS011;70202;52.238;10.680;2024-02-26T03:51:36;0.05;;;0.05;;
80799;SDS011;70202;52.238;10.680;2024-02-26T03:52:37;0.28;;;0.28;;
80799;SDS011;70202;52.238;10.680;2024-02-26T03:53:37;0.30;;;0.17;;
80799;SDS011;70202;52.238;10.680;2024-02-26T03:54:38;0.40;;;0.20;;
80799;SDS011;70202;52.238;10.680;2024-02-26T03:55:38;0.25;;;0.20;;
80799;SDS011;70202;52.238;10.680;2024-02-26T03:56:39;0.40;;;0.22;;
80799;SDS011;70202;52.238;10.680;2024-02-26T03:57:39;0.40;;;0.20;;
80799;SDS011;70202;52.238;10.680;2024-02-26T03:58:40;0.30;;;0.15;;
80799;SDS011;70202;52.238;10.680;2024-02-26T03:59:40;0.82;;;0.30;;
80799;SDS011;70202;52.238;10.680;2024-02-26T04:00:42;0.10;;;0.10;;
80799;SDS011;70202;52.238;10.680;2024-02-26T04:01:45;0.75;;;0.28;;
80799;SDS011;70202;52.238;10.680;2024-02-26T04:02:47;0.20;;;0.20;;
80799;SDS011;70202;52.238;10.680;2024-02-26T04:03:47;1.60;;;0.43;;
80799;SDS011;70202;52.238;10.680;2024-02-26T04:04:48;0.20;;;0.10;;
80799;SDS011;70202;52.238;10.680;2024-02-26T04:05:48;0.28;;;0.28;;
80799;SDS011;70202;52.238;10.680;2024-02-26T04:06:49;0.50;;;0.30;;
80799;SDS011;70202;52.238;10.680;2024-02-26T04:07:49;0.52;;;0.30;;
80799;SDS011;70202;52.238;10.680;2024-02-26T04:08:50;0.30;;;0.20;;
80799;SDS011;70202;52.238;10.680;2024-02-26T04:09:50;0.52;;;0.25;;
80799;SDS011;70202;52.238;10.680;2024-02-26T04:10:50;0.43;;;0.22;;
80799;SDS011;70202;52.238;10.680;2024-02-26T04:11:51;0.17;;;0.17;;
80799;SDS011;70202;52.238;10.680;2024-02-26T04:12:51;0.35;;;0.20;;
80799;SDS011;70202;52.238;10.680;2024-02-26T04:13:52;0.25;;;0.10;;
80799;SDS011;70202;52.238;10.680;2024-02-26T04:14:52;0.25;;;0.15;;
80799;SDS011;70202;52.238;10.680;2024-02-26T04:15:52;0.50;;;0.30;;
80799;SDS011;70202;52.238;10.680;2024-02-26T04:16:53;0.10;;;0.10;;
80799;SDS011;70202;52.238;10.680;2024-02-26T04:17:54;0.43;;;0.10;;
80799;SDS011;70202;52.238;10.680;2024-02-26T04:18:54;0.30;;;0.30;;
80799;SDS011;70202;52.238;10.680;2024-02-26T04:19:55;0.90;;;0.30;;
80799;SDS011;70202;52.238;10.680;2024-02-26T04:20:55;0.43;;;0.30;;
80799;SDS011;70202;52.238;10.680;2024-02-26T04:21:56;0.20;;;0.20;;
80799;SDS011;70202;52.238;10.680;2024-02-26T04:22:57;0.25;;;0.13;;
80799;SDS011;70202;52.238;10.680;2024-02-26T04:23:57;0.20;;;0.10;;
80799;SDS011;70202;52.238;10.680;2024-02-26T04:25:01;0.10;;;0.10;;
80799;SDS011;70202;52.238;10.680;2024-02-26T04:26:03;0.30;;;0.22;;
80799;SDS011;70202;52.238;10.680;2024-02-26T04:27:04;0.55;;;0.30;;
80799;SDS011;70202;52.238;10.680;2024-02-26T04:28:04;0.52;;;0.10;;
80799;SDS011;70202;52.238;10.680;2024-02-26T04:29:05;0.47;;;0.30;;
80799;SDS011;70202;52.238;10.680;2024-02-26T04:30:06;0.38;;;0.20;;
80799;SDS011;70202;52.238;10.680;2024-02-26T04:31:07;0.80;;;0.32;;
80799;SDS011;70202;52.238;10.680;2024-02-26T04:32:07;0.75;;;0.30;;
80799;SDS011;70202;52.238;10.680;2024-02-26T04:33:07;0.13;;;0.10;;
80799;SDS011;70202;52.238;10.680;2024-02-26T04:34:08;0.43;;;0.30;;
80799;SDS011;70202;52.238;10.680;2024-02-26T04:35:08;0.45;;;0.30;;
80799;SDS011;70202;52.238;10.680;2024-02-26T04:36:15;0.30;;;0.10;;
80799;SDS011;70202;52.238;10.680;2024-02-26T04:37:16;0.20;;;0.20;;
80799;SDS011;70202;52.238;10.680;2024-02-26T04:38:16;0.30;;;0.22;;
80799;SDS011;70202;52.238;10.680;2024-02-26T04:39:17;0.10;;;0.10;;
80799;SDS011;70202;52.238;10.680;2024-02-26T04:40:17;0.63;;;0.20;;
80799;SDS011;70202;52.238;10.680;2024-02-26T04:41:18;0.77;;;0.40;;
80799;SDS011;70202;52.238;10.680;2024-02-26T04:42:18;0.03;;;0.03;;
80799;SDS011;70202;52.238;10.680;2024-02-26T04:43:18;0.20;;;0.10;;
80799;SDS011;70202;52.238;10.680;2024-02-26T04:44:19;0.52;;;0.22;;
80799;SDS011;70202;52.238;10.680;2024-02-26T04:45:19;0.32;;;0.20;;
80799;SDS011;70202;52.238;10.680;2024-02-26T04:46:20;0.32;;;0.20;;
80799;SDS011;70202;52.238;10.680;2024-02-26T04:47:22;0.82;;;0.35;;
80799;SDS011;70202;52.238;10.680;2024-02-26T04:48:22;0.75;;;0.45;;
80799;SDS011;70202;52.238;10.680;2024-02-26T04:49:23;0.10;;;0.10;;
80799;SDS011;70202;52.238;10.680;2024-02-26T04:50:23;0.73;;;0.40;;
80799;SDS011;70202;52.238;10.680;2024-02-26T04:51:23;0.60;;;0.35;;
80799;SDS011;70202;52.238;10.680;2024-02-26T04:52:24;0.93;;;0.30;;
80799;SDS011;70202;52.238;10.680;2024-02-26T04:53:25;0.75;;;0.30;;
80799;SDS011;70202;52.238;10.680;2024-02-26T04:54:26;0.22;;;0.20;;
80799;SDS011;70202;52.238;10.680;2024-02-26T04:55:26;0.45;;;0.35;;
80799;SDS011;70202;52.238;10.680;2024-02-26T04:56:26;0.28;;;0.10;;
80799;SDS011;70202;52.238;10.680;2024-02-26T04:57:27;1.13;;;0.40;;
80799;SDS011;70202;52.238;10.680;2024-02-26T04:58:27;0.40;;;0.22;;
80799;SDS011;70202;52.238;10.680;2024-02-26T04:59:27;0.20;;;0.20;;
80799;SDS011;70202;52.238;10.680;2024-02-26T05:00:28;0.52;;;0.20;;
80799;SDS011;70202;52.238;10.680;2024-02-26T05:01:28;0.28;;;0.20;;
80799;SDS011;70202;52.238;10.680;2024-02-26T05:02:29;0.55;;;0.32;;
80799;SDS011;70202;52.238;10.680;2024-02-26T05:03:32;0.22;;;0.20;;
80799;SDS011;70202;52.238;10.680;2024-02-26T05:04:32;0.32;;;0.28;;
80799;SDS011;70202;52.238;10.680;2024-02-26T05:05:33;0.35;;;0.20;;
80799;SDS011;70202;52.238;10.680;2024-02-26T05:06:33;0.32;;;0.20;;
80799;SDS011;70202;52.238;10.680;2024-02-26T05:07:34;0.30;;;0.20;;
80799;SDS011;70202;52.238;10.680;2024-02-26T05:08:39;0.10;;;0.10;;
80799;SDS011;70202;52.238;10.680;2024-02-26T05:09:40;0.40;;;0.22;;
80799;SDS011;70202;52.238;10.680;2024-02-26T05:10:41;0.10;;;0.10;;
80799;SDS011;70202;52.238;10.680;2024-02-26T05:11:43;0.20;;;0.20;;
80799;SDS011;70202;52.238;10.680;2024-02-26T05:12:43;0.32;;;0.20;;
80799;SDS011;70202;52.238;10.680;2024-02-26T05:13:43;0.20;;;0.20;;
80799;SDS011;70202;52.238;10.680;2024-02-26T05:14:45;0.17;;;0.13;;
80799;SDS011;70202;52.238;10.680;2024-02-26T05:15:45;0.15;;;0.15;;
80799;SDS011;70202;52.238;10.680;2024-02-26T05:16:49;0.40;;;0.30;;
80799;SDS011;70202;52.238;10.680;2024-02-26T05:17:49;0.68;;;0.32;;
80799;SDS011;70202;52.238;10.680;2024-02-26T05:18:50;0.52;;;0.20;;
80799;SDS011;70202;52.238;10.680;2024-02-26T05:19:50;0.13;;;0.13;;
80799;SDS011;70202;52.238;10.680;2024-02-26T05:20:50;0.28;;;0.20;;
80799;SDS011;70202;52.238;10.680;2024-02-26T05:21:51;0.50;;;0.35;;
80799;SDS011;70202;52.238;10.680;2024-02-26T05:22:51;0.43;;;0.22;;
80799;SDS011;70202;52.238;10.680;2024-02-26T05:23:51;0.10;;;0.10;;
80799;SDS011;70202;52.238;10.680;2024-02-26T05:24:52;0.65;;;0.28;;
80799;SDS011;70202;52.238;10.680;2024-02-26T05:25:52;0.20;;;0.20;;
80799;SDS011;70202;52.238;10.680;2024-02-26T05:26:53;0.05;;;0.05;;
80799;SDS011;70202;52.238;10.680;2024-02-26T05:27:55;0.30;;;0.20;;
80799;SDS011;70202;52.238;10.680;2024-02-26T05:28:55;0.15;;;0.15;;
80799;SDS011;70202;52.238;10.680;2024-02-26T05:29:59;0.30;;;0.30;;
80799;SDS011;70202;52.238;10.680;2024-02-26T05:31:00;0.25;;;0.15;;
80799;SDS011;70202;52.238;10.680;2024-02-26T05:32:01;0.38;;;0.20;;
80799;SDS011;70202;52.238;10.680;2024-02-26T05:33:01;0.40;;;0.20;;
80799;SDS011;70202;52.238;10.680;2024-02-26T05:34:02;0.47;;;0.20;;
80799;SDS011;70202;52.238;10.680;2024-02-26T05:35:02;0.45;;;0.30;;
80799;SDS011;70202;52.238;10.680;2024-02-26T05:36:03;0.40;;;0.30;;
80799;SDS011;70202;52.238;10.680;2024-02-26T05:37:05;0.10;;;0.10;;
80799;SDS011;70202;52.238;10.680;2024-02-26T05:38:05;0.38;;;0.20;;
80799;SDS011;70202;52.238;10.680;2024-02-26T05:39:06;0.43;;;0.20;;
80799;SDS011;70202;52.238;10.680;2024-02-26T05:40:07;0.10;;;0.10;;
80799;SDS011;70202;52.238;10.680;2024-02-26T05:41:07;0.17;;;0.17;;
80799;SDS011;70202;52.238;10.680;2024-02-26T05:42:09;0.35;;;0.20;;
80799;SDS011;70202;52.238;10.680;2024-02-26T05:43:09;0.73;;;0.30;;
80799;SDS011;70202;52.238;10.680;2024-02-26T05:44:11;0.08;;;0.08;;
80799;SDS011;70202;52.238;10.680;2024-02-26T05:45:11;0.10;;;0.10;;
80799;SDS011;70202;52.238;10.680;2024-02-26T05:46:12;0.20;;;0.20;;
80799;SDS011;70202;52.238;10.680;2024-02-26T05:47:12;0.30;;;0.30;;
80799;SDS011;70202;52.238;10.680;2024-02-26T05:48:13;0.40;;;0.10;;
80799;SDS011;70202;52.238;10.680;2024-02-26T05:49:14;0.45;;;0.25;;
80799;SDS011;70202;52.238;10.680;2024-02-26T05:50:14;0.30;;;0.20;;
80799;SDS011;70202;52.238;10.680;2024-02-26T05:51:15;0.08;;;0.08;;
80799;SDS011;70202;52.238;10.680;2024-02-26T05:52:15;0.30;;;0.20;;
80799;SDS011;70202;52.238;10.680;2024-02-26T05:53:16;0.38;;;0.20;;
80799;SDS011;70202;52.238;10.680;2024-02-26T05:54:16;0.38;;;0.22;;
80799;SDS011;70202;52.238;10.680;2024-02-26T05:55:17;0.30;;;0.30;;
80799;SDS011;70202;52.238;10.680;2024-02-26T05:56:17;0.30;;;0.20;;
80799;SDS011;70202;52.238;10.680;2024-02-26T05:57:17;0.20;;;0.20;;
80799;SDS011;70202;52.238;10.680;2024-02-26T05:58:18;0.47;;;0.30;;
80799;SDS011;70202;52.238;10.680;2024-02-26T05:59:19;0.20;;;0.20;;
80799;SDS011;70202;52.238;10.680;2024-02-26T06:00:19;0.20;;;0.10;;